Time;durP1;ratioP1;P1;durP2;ratioP2;P2;SDS_P1;SDS_P2;PMS_P1;PMS_P2;Temp;Humidity;BMP_temperature;BMP_pressure;BME280_temperature;BME280_humidity;BME280_pressure;Samples;Min_cycle;Max_cycle;Signal;HPM_P1;HPM_P2
2021/06/15 00:00:54;;;;;;;9.65;3.63;;;19.90;56.60;;;20.49;46.39;97850.66;5044836;28;20056;-43
2021/06/15 00:03:23;;;;;;;5.38;3.47;;;19.90;56.80;;;20.44;46.42;97848.59;5044047;28;20067;-42
2021/06/15 00:05:51;;;;;;;8.98;3.92;;;19.90;56.80;;;20.41;46.77;97843.66;5045237;28;20051;-42
2021/06/15 00:08:19;;;;;;;4.85;3.25;;;19.90;56.90;;;20.37;46.96;97838.88;5044605;28;20059;-45
2021/06/15 00:10:47;;;;;;;4.07;3.15;;;19.80;57.10;;;20.34;46.97;97842.03;5044800;28;20053;-42
2021/06/15 00:13:16;;;;;;;5.75;3.35;;;19.80;57.30;;;20.32;46.99;97836.03;5044539;28;20055;-47
2021/06/15 00:15:47;;;;;;;5.78;3.90;;;19.70;57.60;;;20.27;47.04;97840.19;5045663;28;20059;-43
2021/06/15 00:18:18;;;;;;;4.38;3.08;;;19.70;57.80;;;20.23;47.22;97838.16;5043980;28;20401;-44
2021/06/15 00:20:48;;;;;;;3.28;2.97;;;19.70;57.90;;;20.19;47.33;97840.47;5043931;28;20057;-44
2021/06/15 00:23:16;;;;;;;4.78;3.28;;;19.70;58.10;;;20.17;47.42;97839.03;5045279;28;20041;-44
2021/06/15 00:25:44;;;;;;;3.75;3.30;;;19.60;57.90;;;20.16;47.40;97831.94;5044786;28;20342;-41
2021/06/15 00:28:12;;;;;;;6.13;3.88;;;19.60;57.90;;;20.14;47.23;97826.78;5045578;28;20064;-43
2021/06/15 00:30:41;;;;;;;7.20;4.10;;;19.60;58.00;;;20.15;47.32;97827.59;5045454;28;20060;-44
2021/06/15 00:33:09;;;;;;;4.07;3.67;;;19.60;58.10;;;20.11;47.63;97829.91;5047056;28;20242;-44
2021/06/15 00:35:37;;;;;;;5.20;3.70;;;19.60;58.30;;;20.04;47.55;97821.00;5048028;28;20055;-44
2021/06/15 00:38:05;;;;;;;6.88;4.00;;;19.50;58.30;;;20.01;47.77;97824.16;5049166;28;20049;-43
2021/06/15 00:40:33;;;;;;;4.43;3.38;;;19.40;58.20;;;19.98;47.83;97824.59;5047726;28;20048;-48
2021/06/15 00:43:01;;;;;;;4.00;3.60;;;19.50;58.10;;;19.99;47.77;97821.69;5047991;28;20061;-43
2021/06/15 00:45:32;;;;;;;6.75;3.65;;;19.60;58.00;;;19.99;47.75;97820.84;5047635;28;20051;-49
2021/06/15 00:48:03;;;;;;;6.27;4.37;;;19.50;57.90;;;19.95;48.03;97820.47;5031020;28;20048;-42
2021/06/15 00:50:34;;;;;;;5.03;3.60;;;19.50;58.30;;;19.91;47.76;97826.50;5030470;28;20288;-44
2021/06/15 00:53:02;;;;;;;8.20;4.25;;;19.40;58.40;;;19.88;48.16;97821.53;5047082;28;20057;-45
2021/06/15 00:55:30;;;;;;;4.70;4.07;;;19.30;58.70;;;19.84;48.23;97821.97;5047544;28;20067;-42
2021/06/15 00:57:58;;;;;;;7.50;3.63;;;19.30;58.70;;;19.78;48.73;97820.13;5028621;28;20052;-45
2021/06/15 01:00:27;;;;;;;6.18;4.15;;;19.20;59.10;;;19.74;48.78;97815.38;5048509;28;20045;-44
2021/06/15 01:02:57;;;;;;;5.40;4.20;;;19.30;59.50;;;19.70;49.07;97811.41;5029060;28;20269;-43
2021/06/15 01:05:27;;;;;;;6.05;3.97;;;19.20;59.60;;;19.62;49.00;97816.03;5047397;28;20043;-42
2021/06/15 01:08:13;;;;;;;5.22;3.40;;;19.10;59.90;;;19.60;49.24;97812.72;5048322;28;20070;-43
2021/06/15 01:11:00;;;;;;;5.05;3.72;;;19.10;60.60;;;19.61;49.12;97816.22;5031016;28;20372;-46
2021/06/15 01:13:54;;;;;;;5.13;3.83;;;19.10;59.80;;;19.58;49.28;97812.09;5046755;28;20258;-43
2021/06/15 01:16:37;;;;;;;5.43;4.22;;;19.10;61.60;;;19.55;49.21;97807.13;5030004;28;20071;-43
2021/06/15 01:19:36;;;;;;;6.72;5.15;;;19.00;60.80;;;19.49;49.32;97805.28;5047669;28;20629;-42
2021/06/15 01:22:45;;;;;;;5.35;4.40;;;19.00;61.50;;;19.44;49.36;97805.09;5047312;28;20048;-42
2021/06/15 01:25:22;;;;;;;5.47;3.83;;;18.90;61.60;;;19.41;49.43;97802.84;5030020;28;20053;-46
2021/06/15 01:27:57;;;;;;;6.68;4.25;;;18.90;61.20;;;19.38;49.53;97798.66;5030282;28;20061;-43
2021/06/15 01:30:50;;;;;;;5.97;3.90;;;18.90;60.60;;;19.36;49.83;97802.63;5031532;28;20254;-43
2021/06/15 01:33:20;;;;;;;5.85;4.07;;;18.90;61.70;;;19.32;49.50;97804.09;5030226;28;20063;-44
2021/06/15 01:35:52;;;;;;;6.70;4.15;;;18.70;60.60;;;19.26;49.19;97812.00;5014251;28;20053;-43
2021/06/15 01:38:30;;;;;;;5.75;3.90;;;18.60;61.70;;;19.11;49.89;97814.13;5030675;28;20363;-45
2021/06/15 01:41:13;;;;;;;4.75;4.25;;;18.50;61.80;;;19.05;50.14;97815.78;5029155;28;20064;-43
2021/06/15 01:43:49;;;;;;;5.43;4.38;;;18.50;61.90;;;19.06;50.13;97812.06;5027621;28;20063;-44
2021/06/15 01:46:24;;;;;;;5.28;3.67;;;18.50;61.80;;;19.07;50.27;97816.41;5046892;28;20065;-43
2021/06/15 01:49:04;;;;;;;5.18;4.60;;;18.60;61.40;;;19.11;50.29;97807.91;5029844;28;20057;-43
2021/06/15 01:51:36;;;;;;;7.55;3.92;;;18.60;61.40;;;19.09;50.23;97805.41;5028405;28;20060;-43
2021/06/15 01:54:11;;;;;;;5.10;4.03;;;18.60;60.90;;;19.11;50.00;97802.50;5029068;28;20061;-42
2021/06/15 01:56:53;;;;;;;7.35;3.92;;;18.60;60.60;;;19.14;50.21;97799.41;5046936;28;20048;-45
2021/06/15 01:59:26;;;;;;;7.57;3.90;;;18.70;60.90;;;19.07;50.35;97792.13;5029674;28;20049;-44
2021/06/15 02:01:59;;;;;;;5.65;4.18;;;18.60;61.10;;;19.04;50.30;97789.03;5030184;28;20041;-41
2021/06/15 02:04:34;;;;;;;6.00;4.65;;;18.60;61.00;;;18.99;50.48;97786.16;5011361;28;20060;-42
2021/06/15 02:07:05;;;;;;;7.28;3.90;;;18.50;61.60;;;18.91;50.58;97781.81;5047099;28;20049;-43
2021/06/15 02:09:43;;;;;;;6.20;4.40;;;18.30;62.00;;;18.84;50.83;97786.38;5028956;28;20241;-42
2021/06/15 02:12:45;;;;;;;7.15;4.15;;;18.30;62.40;;;18.81;50.68;97784.13;5029210;28;20063;-45
2021/06/15 02:15:34;;;;;;;6.85;4.22;;;18.30;62.30;;;18.81;50.91;97786.81;5030093;28;20400;-42
2021/06/15 02:18:32;;;;;;;5.22;4.15;;;18.40;62.00;;;18.83;50.95;97782.84;5023060;28;20075;-44
2021/06/15 02:21:11;;;;;;;15.43;4.65;;;18.40;61.80;;;18.85;51.01;97779.97;5026917;28;20272;-43
2021/06/15 02:23:46;;;;;;;5.43;4.07;;;18.40;61.90;;;18.84;50.96;97781.84;5047405;28;20051;-44
2021/06/15 02:26:19;;;;;;;5.00;4.43;;;18.40;62.10;;;18.83;51.11;97777.47;5029328;28;20238;-41
2021/06/15 02:28:51;;;;;;;5.75;4.35;;;18.40;61.80;;;18.85;50.95;97774.56;5011586;28;20055;-46
2021/06/15 02:31:28;;;;;;;6.15;4.28;;;18.40;61.70;;;18.84;51.15;97784.53;5029933;28;20428;-47
2021/06/15 02:34:14;;;;;;;7.28;3.83;;;18.40;62.00;;;18.83;51.09;97779.34;5030738;28;20060;-44
2021/06/15 02:36:52;;;;;;;6.95;4.70;;;18.40;62.00;;;18.79;51.22;97786.16;5028675;28;20053;-44
2021/06/15 02:39:34;;;;;;;5.60;4.20;;;18.30;62.10;;;18.79;51.17;97786.16;5029188;28;20604;-43
2021/06/15 02:42:08;;;;;;;6.38;4.10;;;18.30;62.50;;;18.80;50.93;97785.97;5027583;28;20044;-45
2021/06/15 02:44:42;;;;;;;5.55;4.03;;;18.40;61.80;;;18.82;50.82;97788.47;5046098;28;20358;-42
2021/06/15 02:47:15;;;;;;;8.80;4.40;;;18.40;61.50;;;18.82;50.92;97788.47;5028590;28;20466;-44
2021/06/15 02:49:51;;;;;;;15.38;6.40;;;18.40;61.30;;;18.82;50.97;97789.28;5028005;28;20563;-41
2021/06/15 02:52:33;;;;;;;7.00;5.13;;;18.40;61.80;;;18.83;51.03;97782.03;5027877;28;20254;-42
2021/06/15 02:55:07;;;;;;;6.68;4.88;;;18.50;62.40;;;18.81;51.06;97778.72;5027032;28;20061;-43
2021/06/15 02:57:35;;;;;;;6.05;4.70;;;18.40;61.80;;;18.78;51.10;97784.50;5029810;28;20070;-43
2021/06/15 03:00:08;;;;;;;8.48;4.65;;;18.30;62.10;;;18.73;51.35;97778.91;5046109;28;20045;-43
2021/06/15 03:02:36;;;;;;;6.00;4.38;;;18.30;62.70;;;18.66;51.24;97779.75;5046060;28;20049;-42
2021/06/15 03:05:14;;;;;;;6.00;3.92;;;18.20;62.30;;;18.62;51.33;97780.38;5028439;28;20432;-45
2021/06/15 03:07:47;;;;;;;4.90;3.88;;;18.10;62.70;;;18.57;51.38;97775.63;5026943;28;20059;-46
2021/06/15 03:10:19;;;;;;;5.03;4.07;;;18.10;62.60;;;18.56;51.58;97773.13;5028816;28;20520;-44
2021/06/15 03:13:03;;;;;;;7.25;4.45;;;18.10;62.60;;;18.57;51.58;97781.00;5027764;28;20053;-43
2021/06/15 03:15:53;;;;;;;7.50;4.50;;;18.10;63.00;;;18.53;51.64;97782.44;5013025;28;20057;-43
2021/06/15 03:18:40;;;;;;;6.80;3.92;;;18.10;63.20;;;18.53;51.69;97774.34;5045512;28;20063;-43
2021/06/15 03:21:13;;;;;;;6.13;5.45;;;18.10;62.90;;;18.52;51.54;97780.81;5028037;28;20226;-45
2021/06/15 03:24:06;;;;;;;5.28;4.25;;;18.10;62.50;;;18.54;51.66;97767.13;5044839;28;20254;-44
2021/06/15 03:26:53;;;;;;;4.55;3.90;;;18.20;62.80;;;18.55;51.62;97777.66;5045121;28;20053;-43
2021/06/15 03:29:28;;;;;;;7.80;4.68;;;18.20;62.70;;;18.56;51.47;97770.44;5028477;28;20058;-47
2021/06/15 03:32:02;;;;;;;7.65;4.47;;;18.20;62.10;;;18.55;51.60;97776.84;5042200;28;20052;-43
2021/06/15 03:34:41;;;;;;;6.95;3.88;;;18.20;62.10;;;18.54;51.23;97780.59;5044385;28;20053;-45
2021/06/15 03:37:15;;;;;;;5.93;3.90;;;18.10;62.40;;;18.55;51.47;97782.25;5027972;28;20060;-43
2021/06/15 03:39:46;;;;;;;5.32;4.38;;;18.20;62.20;;;18.54;51.50;97786.00;5029675;28;20068;-45
2021/06/15 03:42:21;;;;;;;5.63;4.43;;;18.10;62.20;;;18.53;51.53;97778.94;5027225;28;20106;-42
2021/06/15 03:45:04;;;;;;;6.05;4.35;;;18.20;62.50;;;18.56;51.59;97784.72;5043767;28;20351;-43
2021/06/15 03:47:35;;;;;;;5.07;3.50;;;18.20;62.30;;;18.59;51.50;97783.47;5045327;28;20057;-46
2021/06/15 03:50:06;;;;;;;9.27;4.60;;;18.30;61.70;;;18.61;51.55;97781.41;5027887;28;20049;-43
2021/06/15 03:52:38;;;;;;;9.38;4.95;;;18.30;61.50;;;18.64;51.54;97786.38;5043967;28;20063;-43
2021/06/15 03:55:11;;;;;;;5.88;4.32;;;18.30;61.70;;;18.63;51.63;97785.56;5044135;28;20095;-44
2021/06/15 03:57:42;;;;;;;6.03;4.50;;;18.30;62.00;;;18.62;51.70;97786.59;5028361;28;20049;-46
2021/06/15 04:00:15;;;;;;;5.97;4.20;;;18.30;62.00;;;18.64;51.74;97787.22;5044528;28;20043;-49
2021/06/15 04:02:47;;;;;;;8.00;4.28;;;18.30;62.30;;;18.65;51.77;97788.03;5045491;28;20365;-44
2021/06/15 04:05:18;;;;;;;6.70;5.00;;;18.30;62.40;;;18.66;51.82;97797.78;5014778;28;20051;-44
2021/06/15 04:07:46;;;;;;;5.85;4.38;;;18.30;62.40;;;18.63;51.96;97796.34;5030480;28;20059;-46
2021/06/15 04:10:16;;;;;;;7.15;3.83;;;18.30;62.50;;;18.65;51.95;97794.28;5032316;28;20051;-44
2021/06/15 04:12:46;;;;;;;6.55;4.20;;;18.30;62.50;;;18.66;51.88;97797.78;5030826;28;20064;-45
2021/06/15 04:15:14;;;;;;;5.20;4.70;;;18.30;62.50;;;18.65;52.02;97788.88;5031410;28;20049;-43
2021/06/15 04:17:50;;;;;;;6.50;4.00;;;18.30;62.40;;;18.68;51.92;97791.13;5047787;28;20053;-44
2021/06/15 04:20:29;;;;;;;5.50;4.18;;;18.30;62.80;;;18.69;52.06;97798.22;5030758;28;20063;-47
2021/06/15 04:23:01;;;;;;;6.57;4.10;;;18.40;63.00;;;18.70;52.01;97797.16;5049678;28;20053;-44
2021/06/15 04:25:33;;;;;;;4.47;3.73;;;18.40;62.30;;;18.75;51.87;97793.84;5048824;28;20749;-44
2021/06/15 04:28:01;;;;;;;5.32;4.00;;;18.50;62.10;;;18.77;51.93;97797.16;5031505;28;20052;-43
2021/06/15 04:30:30;;;;;;;6.32;4.68;;;18.60;61.50;;;18.74;52.20;97807.53;5044735;22;20025;-44
2021/06/15 04:33:01;;;;;;;5.00;4.22;;;18.70;61.20;;;18.76;51.97;97803.56;5030968;28;20388;-45
2021/06/15 04:35:42;;;;;;;7.93;4.32;;;18.80;61.10;;;18.81;51.91;97801.13;5048782;28;20072;-44
2021/06/15 04:38:29;;;;;;;6.22;3.72;;;18.80;61.40;;;18.85;52.00;97804.22;5047612;28;20052;-44
2021/06/15 04:41:08;;;;;;;7.93;3.97;;;18.80;61.10;;;18.92;51.67;97812.28;5032691;28;20044;-47
2021/06/15 04:43:54;;;;;;;7.15;4.07;;;18.80;61.50;;;18.94;51.70;97808.38;5049365;28;20059;-45
2021/06/15 04:46:39;;;;;;;8.15;4.00;;;18.80;61.70;;;18.99;51.57;97810.44;5049107;28;20059;-44
2021/06/15 04:49:45;;;;;;;4.60;3.50;;;18.80;61.30;;;19.00;51.46;97807.53;5048153;28;20346;-48
2021/06/15 04:52:18;;;;;;;6.18;3.92;;;18.90;61.40;;;19.06;51.47;97809.38;4997115;28;20245;-45
2021/06/15 04:54:51;;;;;;;4.03;3.35;;;18.90;61.00;;;19.13;51.67;97813.91;5031033;28;20060;-45
2021/06/15 04:57:25;;;;;;;6.05;3.95;;;19.10;61.10;;;19.17;51.58;97812.44;5030609;28;20269;-45
2021/06/15 04:59:57;;;;;;;6.85;4.07;;;19.10;60.90;;;19.21;51.43;97824.47;5031162;28;20056;-48
2021/06/15 05:02:27;;;;;;;6.60;5.00;;;19.20;60.70;;;19.23;51.45;97809.75;5031021;28;20051;-48
2021/06/15 05:04:56;;;;;;;6.55;4.25;;;19.10;60.70;;;19.26;51.60;97819.28;5032106;28;20049;-47
2021/06/15 05:07:25;;;;;;;7.28;4.15;;;19.20;60.50;;;19.26;51.41;97811.19;5048143;28;20048;-45
2021/06/15 05:10:04;;;;;;;6.30;4.50;;;19.30;60.30;;;19.26;51.52;97813.88;5030805;28;20053;-47
2021/06/15 05:12:44;;;;;;;6.30;4.07;;;19.30;60.60;;;19.29;52.16;97824.25;5045367;28;20411;-46
2021/06/15 05:15:15;;;;;;;8.73;4.25;;;19.30;61.00;;;19.30;51.88;97828.59;5030664;28;20063;-46
2021/06/15 05:17:48;;;;;;;7.43;5.65;;;19.40;60.50;;;19.33;51.75;97821.94;5047631;28;20063;-46
2021/06/15 05:20:19;;;;;;;;;;;19.40;60.50;;;19.36;51.49;97819.66;5048019;28;20056;-44
2021/06/15 05:23:03;;;;;;;10.98;3.80;;;19.40;60.80;;;19.47;51.21;97826.28;5047341;28;19917;-44
2021/06/15 05:25:32;;;;;;;5.72;3.95;;;19.50;60.40;;;19.49;51.31;97826.88;5029861;28;20053;-45
2021/06/15 05:28:00;;;;;;;7.30;3.92;;;19.50;60.00;;;19.53;51.38;97838.09;5047535;28;20064;-45
2021/06/15 05:30:28;;;;;;;5.72;3.83;;;19.60;60.30;;;19.54;51.35;97828.94;5046814;28;20044;-46
2021/06/15 05:32:57;;;;;;;5.40;3.50;;;19.60;60.00;;;19.57;51.57;97834.72;5045855;28;20057;-44
2021/06/15 05:35:26;;;;;;;6.47;4.82;;;19.70;60.40;;;19.64;51.60;97834.72;5048005;28;20057;-44
2021/06/15 05:37:54;;;;;;;6.35;4.60;;;19.70;60.40;;;19.66;52.33;97836.16;5046978;28;20057;-44
2021/06/15 05:40:22;;;;;;;7.70;5.30;;;19.70;61.20;;;19.73;52.60;97840.72;5030330;28;20071;-44
2021/06/15 05:42:50;;;;;;;5.88;4.55;;;19.80;61.90;;;19.77;52.65;97841.94;5045848;28;20059;-44
2021/06/15 05:45:18;;;;;;;9.45;5.60;;;19.80;62.20;;;19.81;52.79;97844.03;5045808;28;20338;-45
2021/06/15 05:47:46;;;;;;;8.75;6.57;;;19.80;62.70;;;19.84;53.26;97840.03;5044640;28;20053;-45
2021/06/15 05:50:16;;;;;;;10.40;5.82;;;19.80;63.20;;;19.87;53.45;97842.31;5046454;28;20063;-44
2021/06/15 05:52:45;;;;;;;7.30;5.18;;;19.80;63.30;;;19.89;53.27;97851.03;5049009;28;20076;-44
2021/06/15 05:55:14;;;;;;;6.35;5.03;;;19.80;63.50;;;19.91;53.42;97846.25;5029719;28;20052;-44
2021/06/15 05:57:42;;;;;;;5.72;4.95;;;19.80;63.60;;;19.95;53.54;97836.66;5046838;28;20053;-46
2021/06/15 06:00:15;;;;;;;6.60;5.53;;;19.90;63.80;;;19.98;53.71;97838.91;5045772;28;20061;-45
2021/06/15 06:02:44;;;;;;;6.93;5.43;;;19.90;63.70;;;19.98;53.19;97835.41;5047132;28;20063;-44
2021/06/15 06:10:31;;;;;;;6.63;4.28;;;20.10;61.70;;;20.05;51.94;97837.00;5046462;28;20055;-44
2021/06/15 06:12:59;;;;;;;6.70;4.20;;;20.10;61.00;;;20.09;51.78;97842.00;5045237;28;20048;-46
2021/06/15 06:15:28;;;;;;;7.65;4.35;;;20.20;60.80;;;20.15;51.79;97850.06;5045741;28;20063;-45
2021/06/15 06:18:06;;;;;;;8.88;5.25;;;20.20;60.90;;;20.20;51.88;97847.53;5046581;28;20358;-44
2021/06/15 06:20:37;;;;;;;8.73;4.45;;;20.30;61.00;;;20.25;51.76;97846.88;5047445;28;20067;-44
2021/06/15 06:23:06;;;;;;;10.15;4.75;;;20.30;61.70;;;20.31;51.89;97845.16;5045833;28;20063;-45
2021/06/15 06:25:34;;;;;;;7.25;4.38;;;20.40;60.70;;;20.36;51.76;97850.75;5044130;28;20059;-45
2021/06/15 06:28:03;;;;;;;6.47;4.45;;;20.40;60.50;;;20.41;51.30;97857.16;5045579;28;20057;-45
2021/06/15 06:30:32;;;;;;;7.43;4.32;;;20.50;60.30;;;20.46;51.57;97859.19;5046567;28;20063;-45
2021/06/15 06:33:01;;;;;;;6.22;4.45;;;20.50;60.10;;;20.50;50.92;97859.59;5044774;28;20230;-46
2021/06/15 06:35:30;;;;;;;8.18;3.80;;;20.60;59.70;;;20.52;51.28;97858.31;5046083;28;20070;-46
2021/06/15 06:37:58;;;;;;;9.50;4.55;;;20.60;59.80;;;20.58;50.91;97859.31;5048162;28;20044;-44
2021/06/15 06:40:26;;;;;;;8.90;4.55;;;20.60;59.70;;;20.62;51.29;97858.69;5046749;28;20247;-44
2021/06/15 06:42:54;;;;;;;6.10;4.13;;;20.70;60.00;;;20.70;51.23;97859.47;5045532;28;20052;-43
2021/06/15 06:45:22;;;;;;;6.10;4.28;;;20.80;60.00;;;20.74;50.84;97853.38;5044352;28;20237;-45
2021/06/15 06:47:50;;;;;;;6.95;3.95;;;20.80;59.60;;;20.76;50.94;97851.31;5045723;28;20053;-46
2021/06/15 06:50:18;;;;;;;6.78;4.28;;;20.90;59.70;;;20.81;51.21;97856.84;5045591;28;20059;-46
2021/06/15 06:52:46;;;;;;;6.80;3.85;;;20.90;59.70;;;20.86;50.77;97858.91;5045316;28;20048;-46
2021/06/15 06:55:20;;;;;;;5.13;4.50;;;21.00;59.50;;;20.91;50.97;97858.25;5046565;28;20090;-46
2021/06/15 06:57:48;;;;;;;8.65;3.97;;;21.00;59.40;;;20.95;51.00;97856.75;5045096;28;20354;-48
2021/06/15 07:00:17;;;;;;;7.97;6.22;;;21.00;59.50;;;20.97;51.88;97863.56;5028133;28;20052;-45
2021/06/15 07:02:48;;;;;;;7.03;5.15;;;21.10;61.80;;;21.00;52.54;97856.91;5044660;28;20055;-45
2021/06/15 07:05:17;;;;;;;7.07;5.13;;;21.10;61.60;;;21.06;52.21;97866.03;5046060;28;20119;-45
2021/06/15 07:07:46;;;;;;;10.00;5.45;;;21.20;61.50;;;21.09;52.88;97857.44;5044414;28;20040;-46
2021/06/15 07:10:14;;;;;;;10.45;5.30;;;21.20;61.80;;;21.12;52.63;97857.81;5044479;28;20053;-45
2021/06/15 07:12:42;;;;;;;10.63;5.47;;;21.20;61.90;;;21.15;52.67;97865.50;5045177;28;20053;-45
2021/06/15 07:15:11;;;;;;;7.70;5.30;;;21.30;62.10;;;21.22;52.79;97858.13;5044782;28;20055;-46
2021/06/15 07:17:39;;;;;;;11.23;5.57;;;21.40;62.20;;;21.29;53.03;97857.25;5045437;28;20075;-46
2021/06/15 07:20:09;;;;;;;7.05;6.13;;;21.50;62.30;;;21.36;52.74;97847.16;5042668;28;20053;-46
2021/06/15 07:22:38;;;;;;;8.45;5.90;;;21.50;61.90;;;21.41;52.88;97852.72;5053084;28;20059;-46
2021/06/15 07:25:07;;;;;;;8.57;4.90;;;21.60;61.70;;;21.48;52.65;97850.81;5041682;28;20049;-45
2021/06/15 07:27:35;;;;;;;8.23;5.00;;;21.70;61.60;;;21.53;52.33;97859.06;5059125;28;20055;-45
2021/06/15 07:30:05;;;;;;;7.18;5.50;;;21.70;61.50;;;21.58;52.57;97859.22;5041004;28;20063;-46
2021/06/15 07:32:33;;;;;;;16.58;6.35;;;21.80;61.90;;;21.66;52.72;97859.97;5056668;28;20388;-47
2021/06/15 07:35:01;;;;;;;9.55;5.63;;;21.80;61.70;;;21.71;53.09;97862.81;5059757;28;20049;-47
2021/06/15 07:37:29;;;;;;;9.63;6.15;;;21.90;62.30;;;21.75;52.67;97864.00;5058380;28;20056;-49
2021/06/15 07:39:58;;;;;;;9.95;6.32;;;21.90;61.90;;;21.80;52.95;97865.00;5059499;28;20059;-46
2021/06/15 07:42:29;;;;;;;10.57;5.30;;;22.00;61.70;;;21.86;52.29;97860.53;5058802;28;20067;-45
2021/06/15 07:44:57;;;;;;;8.57;5.15;;;22.10;61.50;;;21.93;52.26;97868.59;5061748;28;20053;-46
2021/06/15 07:47:25;;;;;;;11.98;6.35;;;22.10;61.10;;;21.95;51.94;97859.19;5059700;28;20057;-44
2021/06/15 07:50:13;;;;;;;13.25;5.45;;;22.10;61.10;;;22.02;52.57;97865.34;5061105;28;20052;-44
2021/06/15 07:52:45;;;;;;;8.57;5.72;;;22.20;61.30;;;22.10;52.21;97871.47;5060618;28;20354;-45
2021/06/15 07:55:16;;;;;;;13.65;6.03;;;22.30;61.30;;;22.14;52.02;97869.97;5059920;28;20056;-46
2021/06/15 07:57:47;;;;;;;12.32;6.00;;;22.30;61.00;;;22.19;51.77;97878.25;5060819;28;20057;-47
2021/06/15 08:00:18;;;;;;;11.80;6.07;;;22.40;60.30;;;22.20;51.97;97875.31;5065199;28;20052;-47
2021/06/15 08:02:47;;;;;;;9.60;4.97;;;22.40;60.70;;;22.26;51.56;97864.63;5064820;28;20235;-45
2021/06/15 08:05:15;;;;;;;9.63;5.35;;;22.50;60.50;;;22.30;51.78;97863.13;5058004;28;20051;-44
2021/06/15 08:07:48;;;;;;;12.75;6.72;;;22.50;60.60;;;22.36;51.41;97870.31;5057980;28;20053;-44
2021/06/15 08:10:19;;;;;;;13.40;5.10;;;22.60;60.20;;;22.38;51.74;97863.59;5071447;28;20041;-45
2021/06/15 08:12:49;;;;;;;6.82;5.13;;;22.60;60.20;;;22.45;51.56;97866.22;5064127;28;20041;-44
2021/06/15 08:15:17;;;;;;;8.20;4.75;;;22.70;60.60;;;22.49;51.96;97864.69;5048173;28;20053;-45
2021/06/15 08:17:46;;;;;;;7.95;5.22;;;22.80;60.80;;;22.53;52.13;97871.31;5063969;28;20049;-48
2021/06/15 08:20:15;;;;;;;10.57;6.00;;;22.80;60.50;;;22.60;51.48;97868.47;5060337;28;20056;-43
2021/06/15 08:22:49;;;;;;;8.57;6.03;;;22.80;59.90;;;22.66;51.01;97872.97;5076386;28;20053;-45
2021/06/15 08:25:18;;;;;;;15.82;5.05;;;22.90;59.90;;;22.71;51.17;97878.53;5060076;28;20122;-43
2021/06/15 08:27:46;;;;;;;9.45;4.65;;;22.90;59.80;;;22.76;51.25;97877.81;5057736;28;20041;-46
2021/06/15 08:30:16;;;;;;;9.60;5.45;;;23.00;59.80;;;22.78;51.71;97881.16;5059124;28;20055;-45
2021/06/15 08:32:44;;;;;;;9.60;5.40;;;23.00;60.10;;;22.75;51.58;97878.88;5039293;28;20060;-47
2021/06/15 08:35:12;;;;;;;7.72;5.10;;;23.00;59.90;;;22.78;51.38;97881.16;5058352;28;20063;-44
2021/06/15 08:37:40;;;;;;;7.20;5.03;;;23.00;59.80;;;22.77;51.19;97883.00;5057973;28;20358;-44
2021/06/15 08:40:09;;;;;;;7.97;4.50;;;23.00;59.30;;;22.83;50.65;97877.72;5058218;28;20067;-45
2021/06/15 08:42:39;;;;;;;8.20;5.18;;;23.10;59.30;;;22.75;50.29;97879.72;5057161;28;20048;-45
2021/06/15 08:45:10;;;;;;;7.53;5.05;;;23.00;58.30;;;22.80;50.37;97885.28;5058392;28;20373;-45
2021/06/15 08:47:43;;;;;;;14.98;5.07;;;23.10;58.50;;;22.82;50.30;97879.63;5054980;28;20060;-46
2021/06/15 08:50:17;;;;;;;6.82;4.57;;;23.10;58.30;;;22.82;50.17;97887.75;5057044;28;20266;-44
2021/06/15 08:52:48;;;;;;;9.52;5.03;;;23.20;58.40;;;22.88;49.82;97886.81;5061494;28;20053;-45
2021/06/15 08:55:18;;;;;;;6.28;4.55;;;23.20;58.10;;;22.89;49.81;97885.72;5045629;28;20053;-43
2021/06/15 08:58:03;;;;;;;6.43;4.57;;;23.20;58.10;;;22.95;49.58;97884.81;5064877;28;20241;-44
2021/06/15 09:00:31;;;;;;;7.53;5.60;;;23.30;57.70;;;23.06;50.03;97879.66;5064636;28;20064;-45
2021/06/15 09:03:02;;;;;;;8.02;6.82;;;23.40;58.20;;;22.96;49.47;97881.03;5055442;28;20409;-44
2021/06/15 09:05:32;;;;;;;6.10;5.07;;;23.30;57.70;;;23.03;48.44;97888.25;5062608;28;20071;-46
2021/06/15 09:08:12;;;;;;;;;;;23.30;56.00;;;23.00;47.97;97884.94;5065962;28;20261;-44
2021/06/15 09:10:48;;;;;;;12.07;4.97;;;23.30;55.70;;;23.11;48.17;97880.59;5042829;28;19917;-45
2021/06/15 09:13:37;;;;;;;6.88;4.05;;;23.40;56.00;;;23.18;46.99;97875.84;5064127;28;20234;-44
2021/06/15 09:16:33;;;;;;;5.30;3.63;;;23.50;53.70;;;23.30;45.38;97881.31;5063649;28;20055;-45
2021/06/15 09:19:22;;;;;;;4.78;3.60;;;23.60;51.10;;;23.43;44.84;97887.53;5063974;28;20059;-47
2021/06/15 09:21:53;;;;;;;5.00;4.00;;;23.80;51.50;;;23.51;45.53;97881.75;5064082;28;20036;-46
2021/06/15 09:24:25;;;;;;;5.63;3.28;;;23.80;53.10;;;23.56;44.74;97879.97;5063163;28;20045;-47
2021/06/15 09:27:08;;;;;;;6.43;3.58;;;23.80;52.80;;;23.66;44.87;97876.63;5064066;28;20048;-50
2021/06/15 09:29:50;;;;;;;7.93;3.80;;;23.90;51.30;;;23.71;45.18;97875.91;5062931;28;20075;-48
2021/06/15 09:32:24;;;;;;;6.60;4.32;;;24.00;52.20;;;23.75;43.76;97888.78;5058669;28;20056;-45
2021/06/15 09:35:07;;;;;;;4.45;3.88;;;24.20;50.90;;;23.77;42.18;97878.50;5061570;28;20057;-47
2021/06/15 09:37:56;;;;;;;4.38;3.92;;;24.20;48.70;;;23.87;44.28;97883.34;5040031;28;20255;-46
2021/06/15 09:40:29;;;;;;;5.47;3.42;;;24.30;51.20;;;23.98;44.93;97884.34;5056456;28;20048;-45
2021/06/15 09:43:12;;;;;;;5.20;3.90;;;24.30;52.30;;;24.06;44.69;97886.72;5037107;28;20068;-45
2021/06/15 09:45:47;;;;;;;4.80;3.75;;;24.40;51.90;;;24.15;43.01;97890.69;5035801;28;20063;-46
2021/06/15 09:48:36;;;;;;;3.83;3.53;;;24.50;50.70;;;24.27;41.92;97890.66;5052652;28;20055;-46
2021/06/15 09:51:14;;;;;;;5.28;3.40;;;24.60;48.60;;;24.37;41.65;97885.38;5051422;28;20357;-45
2021/06/15 09:53:48;;;;;;;4.70;3.55;;;24.70;48.70;;;24.44;41.12;97882.50;5048179;28;20091;-45
2021/06/15 09:56:19;;;;;;;5.45;3.63;;;24.70;48.20;;;24.49;41.56;97881.78;5032935;28;20056;-45
2021/06/15 09:58:55;;;;;;;7.10;3.60;;;24.80;48.70;;;24.58;41.66;97879.50;5048289;28;20059;-45
2021/06/15 10:01:40;;;;;;;5.50;3.58;;;24.90;48.50;;;24.64;41.62;97879.38;5049486;28;20684;-45
2021/06/15 10:04:27;;;;;;;3.75;3.42;;;25.00;48.50;;;24.70;40.47;97875.66;5027957;28;20053;-44
2021/06/15 10:06:58;;;;;;;5.97;3.45;;;25.10;46.70;;;24.79;41.44;97878.78;5027366;28;20241;-46
2021/06/15 10:09:30;;;;;;;3.72;3.20;;;25.10;48.20;;;24.85;41.23;97883.22;5027343;28;20058;-46
2021/06/15 10:12:05;;;;;;;4.53;3.03;;;25.20;47.90;;;24.91;40.25;97882.25;5029180;28;20065;-47
2021/06/15 10:14:37;;;;;;;4.88;3.97;;;25.30;46.60;;;24.94;39.60;97881.75;5046919;28;20351;-46
2021/06/15 10:17:06;;;;;;;5.13;3.90;;;25.30;45.70;;;24.99;39.99;97881.00;5046380;28;20061;-45
2021/06/15 10:19:34;;;;;;;5.72;3.58;;;25.40;46.60;;;25.05;40.56;97876.47;5046676;28;20381;-44
2021/06/15 10:22:02;;;;;;;7.28;3.55;;;25.40;47.30;;;25.09;41.25;97881.16;5045420;28;20052;-45
2021/06/15 10:24:30;;;;;;;5.28;3.88;;;25.50;47.90;;;25.18;40.37;97880.72;5046285;28;20049;-45
2021/06/15 10:27:06;;;;;;;4.45;3.47;;;25.60;46.80;;;25.23;39.46;97875.41;5047023;28;20045;-45
2021/06/15 10:29:37;;;;;;;6.68;4.18;;;25.50;46.10;;;25.28;39.80;97873.56;5046211;28;20049;-44
2021/06/15 10:32:26;;;;;;;8.75;4.13;;;25.60;46.50;;;25.33;39.47;97864.63;5046860;28;20057;-45
2021/06/15 10:35:07;;;;;;;6.68;5.30;;;25.80;45.40;;;25.42;39.82;97868.59;5045182;28;20045;-44
2021/06/15 10:37:36;;;;;;;5.43;3.42;;;25.80;45.10;;;25.49;38.94;97869.25;5044343;28;20360;-45
2021/06/15 10:40:14;;;;;;;7.95;3.80;;;25.80;45.20;;;25.53;38.61;97866.81;5046430;28;20358;-44
2021/06/15 10:43:01;;;;;;;4.57;3.58;;;25.90;43.20;;;25.60;38.36;97866.63;5044641;28;20055;-44
2021/06/15 10:45:30;;;;;;;7.00;3.42;;;25.90;44.40;;;25.60;38.12;97859.28;5030984;28;20067;-44
2021/06/15 10:48:04;;;;;;;4.60;2.65;;;25.90;44.10;;;25.65;37.23;97858.50;5046553;28;20063;-47
2021/06/15 10:50:45;;;;;;;4.07;3.03;;;26.00;42.00;;;25.67;36.65;97861.84;5046238;28;20255;-44
2021/06/15 10:53:16;;;;;;;4.20;3.80;;;26.00;40.90;;;25.64;36.06;97859.59;5027862;28;20416;-44